sensor_id;sensor_type;location;lat;lon;timestamp;temperature;humidity
30467;DHT22;17258;52.560;13.046;2023-04-01T00:09:28;15.30;60.50
30467;DHT22;17258;52.560;13.046;2023-04-01T00:19:29;15.30;60.50
30467;DHT22;17258;52.560;13.046;2023-04-01T00:29:30;15.30;60.70
30467;DHT22;17258;52.560;13.046;2023-04-01T00:39:31;15.30;60.70
30467;DHT22;17258;52.560;13.046;2023-04-01T00:49:36;15.20;60.60
30467;DHT22;17258;52.560;13.046;2023-04-01T00:59:43;15.20;60.70
30467;DHT22;17258;52.560;13.046;2023-04-01T01:41:57;15.20;61.00
30467;DHT22;17258;52.560;13.046;2023-04-01T01:52:02;15.20;60.90
30467;DHT22;17258;52.560;13.046;2023-04-01T02:02:04;15.10;60.80
30467;DHT22;17258;52.560;13.046;2023-04-01T02:12:09;15.10;60.80
30467;DHT22;17258;52.560;13.046;2023-04-01T02:22:16;15.10;60.80
30467;DHT22;17258;52.560;13.046;2023-04-01T02:32:20;15.10;60.80
30467;DHT22;17258;52.560;13.046;2023-04-01T02:42:20;15.00;60.80
30467;DHT22;17258;52.560;13.046;2023-04-01T02:52:21;14.90;60.90
30467;DHT22;17258;52.560;13.046;2023-04-01T03:02:22;14.90;60.90
30467;DHT22;17258;52.560;13.046;2023-04-01T03:12:22;14.90;61.00
30467;DHT22;17258;52.560;13.046;2023-04-01T03:22:23;14.90;61.00
30467;DHT22;17258;52.560;13.046;2023-04-01T03:32:24;14.90;61.10
30467;DHT22;17258;52.560;13.046;2023-04-01T03:42:24;14.80;61.10
30467;DHT22;17258;52.560;13.046;2023-04-01T03:52:25;14.80;61.20
30467;DHT22;17258;52.560;13.046;2023-04-01T04:02:26;14.90;61.30
30467;DHT22;17258;52.560;13.046;2023-04-01T04:12:27;14.90;61.40
30467;DHT22;17258;52.560;13.046;2023-04-01T04:22:27;14.80;61.40
30467;DHT22;17258;52.560;13.046;2023-04-01T04:32:28;14.90;61.40
30467;DHT22;17258;52.560;13.046;2023-04-01T04:42:29;14.90;61.50
30467;DHT22;17258;52.560;13.046;2023-04-01T04:52:29;14.90;61.40
30467;DHT22;17258;52.560;13.046;2023-04-01T05:02:30;14.90;61.50
30467;DHT22;17258;52.560;13.046;2023-04-01T05:12:31;14.90;61.60
30467;DHT22;17258;52.560;13.046;2023-04-01T05:22:36;14.90;61.60
30467;DHT22;17258;52.560;13.046;2023-04-01T05:32:36;15.00;61.70
30467;DHT22;17258;52.560;13.046;2023-04-01T05:42:37;15.00;61.80
30467;DHT22;17258;52.560;13.046;2023-04-01T05:52:38;15.00;61.90
30467;DHT22;17258;52.560;13.046;2023-04-01T06:02:39;15.10;62.10
30467;DHT22;17258;52.560;13.046;2023-04-01T06:44:23;15.50;63.00
30467;DHT22;17258;52.560;13.046;2023-04-01T06:55:00;15.50;63.30
30467;DHT22;17258;52.560;13.046;2023-04-01T07:05:14;15.90;63.10
30467;DHT22;17258;52.560;13.046;2023-04-01T07:15:19;16.10;62.60
30467;DHT22;17258;52.560;13.046;2023-04-01T07:25:27;16.30;62.60
30467;DHT22;17258;52.560;13.046;2023-04-01T07:35:30;16.40;62.60
30467;DHT22;17258;52.560;13.046;2023-04-01T08:17:05;16.80;62.60
30467;DHT22;17258;52.560;13.046;2023-04-01T08:27:55;16.90;62.70
30467;DHT22;17258;52.560;13.046;2023-04-01T08:38:06;17.10;63.00
30467;DHT22;17258;52.560;13.046;2023-04-01T08:59:25;17.20;61.60
30467;DHT22;17258;52.560;13.046;2023-04-01T09:20:05;16.60;61.50
30467;DHT22;17258;52.560;13.046;2023-04-01T09:41:12;16.30;61.00
30467;DHT22;17258;52.560;13.046;2023-04-01T10:12:21;15.70;61.50
30467;DHT22;17258;52.560;13.046;2023-04-01T10:33:18;15.50;61.50
30467;DHT22;17258;52.560;13.046;2023-04-01T11:26:07;15.10;62.20
30467;DHT22;17258;52.560;13.046;2023-04-01T11:58:19;14.90;62.30
30467;DHT22;17258;52.560;13.046;2023-04-01T12:09:01;14.90;62.10
30467;DHT22;17258;52.560;13.046;2023-04-01T12:19:25;14.70;62.20
30467;DHT22;17258;52.560;13.046;2023-04-01T12:40:51;14.60;62.20
30467;DHT22;17258;52.560;13.046;2023-04-01T12:51:10;14.50;62.20
30467;DHT22;17258;52.560;13.046;2023-04-01T13:01:54;14.40;62.00
30467;DHT22;17258;52.560;13.046;2023-04-01T13:12:26;14.30;62.20
30467;DHT22;17258;52.560;13.046;2023-04-01T13:22:51;14.30;62.50
30467;DHT22;17258;52.560;13.046;2023-04-01T13:33:16;14.30;62.50
30467;DHT22;17258;52.560;13.046;2023-04-01T13:43:35;14.30;62.20
30467;DHT22;17258;52.560;13.046;2023-04-01T13:53:56;14.20;62.10
30467;DHT22;17258;52.560;13.046;2023-04-01T14:15:17;14.00;62.20
30467;DHT22;17258;52.560;13.046;2023-04-01T14:36:41;13.80;62.20
30467;DHT22;17258;52.560;13.046;2023-04-01T14:47:15;13.60;62.30
30467;DHT22;17258;52.560;13.046;2023-04-01T14:57:30;13.50;62.10
30467;DHT22;17258;52.560;13.046;2023-04-01T15:18:37;13.40;62.20
30467;DHT22;17258;52.560;13.046;2023-04-01T15:50:33;13.00;62.10
30467;DHT22;17258;52.560;13.046;2023-04-01T16:32:42;12.60;62.20
30467;DHT22;17258;52.560;13.046;2023-04-01T16:42:52;12.40;62.10
30467;DHT22;17258;52.560;13.046;2023-04-01T17:03:08;11.90;62.50
30467;DHT22;17258;52.560;13.046;2023-04-01T17:23:52;12.00;62.10
30467;DHT22;17258;52.560;13.046;2023-04-01T17:34:29;11.90;62.10
30467;DHT22;17258;52.560;13.046;2023-04-01T17:44:51;11.80;62.40
30467;DHT22;17258;52.560;13.046;2023-04-01T17:55:15;11.70;62.10
30467;DHT22;17258;52.560;13.046;2023-04-01T18:05:34;11.60;62.00
30467;DHT22;17258;52.560;13.046;2023-04-01T18:26:21;11.30;62.10
30467;DHT22;17258;52.560;13.046;2023-04-01T18:36:51;11.20;62.00
30467;DHT22;17258;52.560;13.046;2023-04-01T18:57:50;11.00;62.30
30467;DHT22;17258;52.560;13.046;2023-04-01T19:29:38;10.60;62.50
30467;DHT22;17258;52.560;13.046;2023-04-01T19:39:54;10.60;62.50
30467;DHT22;17258;52.560;13.046;2023-04-01T20:00:43;10.40;62.80
30467;DHT22;17258;52.560;13.046;2023-04-01T20:10:54;10.40;62.40
30467;DHT22;17258;52.560;13.046;2023-04-01T20:21:06;10.40;62.40
30467;DHT22;17258;52.560;13.046;2023-04-01T20:52:19;10.10;62.20
30467;DHT22;17258;52.560;13.046;2023-04-01T21:02:48;10.00;62.30
30467;DHT22;17258;52.560;13.046;2023-04-01T21:23:59;9.70;62.40
30467;DHT22;17258;52.560;13.046;2023-04-01T22:06:29;9.40;62.20
30467;DHT22;17258;52.560;13.046;2023-04-01T22:16:56;9.30;62.10
30467;DHT22;17258;52.560;13.046;2023-04-01T22:37:58;9.30;62.20
30467;DHT22;17258;52.560;13.046;2023-04-01T22:58:53;9.20;62.30
30467;DHT22;17258;52.560;13.046;2023-04-01T23:08:59;9.20;62.20
30467;DHT22;17258;52.560;13.046;2023-04-01T23:19:20;9.20;62.10
30467;DHT22;17258;52.560;13.046;2023-04-01T23:29:22;9.10;62.10
30467;DHT22;17258;52.560;13.046;2023-04-01T23:39:32;9.20;62.00
30467;DHT22;17258;52.560;13.046;2023-04-01T23:49:56;9.10;61.80
